Time;durP1;ratioP1;P1;durP2;ratioP2;P2;SDS_P1;SDS_P2;PMS_P1;PMS_P2;Temp;Humidity;BMP_temperature;BMP_pressure;BME280_temperature;BME280_humidity;BME280_pressure;Samples;Min_cycle;Max_cycle;Signal;HPM_P1;HPM_P2
2022/12/31 00:01:32;;;;;;;8.87;8.17;;;13.00;55.70;;;;;;5104129;27;20872;-61
2022/12/31 00:03:58;;;;;;;6.90;6.50;;;13.00;55.60;;;;;;5103029;27;20185;-61
2022/12/31 00:06:33;;;;;;;8.47;7.87;;;13.00;55.70;;;;;;5102120;27;20454;-61
2022/12/31 00:09:01;;;;;;;5.77;5.67;;;13.00;55.70;;;;;;5102958;27;20468;-61
2022/12/31 00:11:28;;;;;;;5.93;5.73;;;13.00;55.60;;;;;;5103127;27;20447;-61
2022/12/31 00:13:55;;;;;;;6.20;5.87;;;13.00;55.60;;;;;;5101319;27;20411;-60
2022/12/31 00:16:22;;;;;;;6.40;6.10;;;13.00;55.50;;;;;;5103297;27;20471;-61
2022/12/31 00:18:50;;;;;;;5.70;5.50;;;13.00;55.50;;;;;;5119683;27;20419;-61
2022/12/31 00:21:17;;;;;;;6.00;5.80;;;13.00;55.40;;;;;;5102943;27;20442;-61
2022/12/31 00:23:43;;;;;;;8.10;7.53;;;13.00;55.00;;;;;;5103775;28;20834;-60
2022/12/31 00:26:14;;;;;;;6.30;6.07;;;13.10;55.10;;;;;;5101995;27;20469;-61
2022/12/31 00:28:40;;;;;;;7.40;7.07;;;13.10;54.80;;;;;;5103634;28;20557;-61
2022/12/31 00:31:12;;;;;;;6.10;5.90;;;13.10;54.70;;;;;;5100808;27;20419;-61
2022/12/31 00:33:39;;;;;;;5.90;5.70;;;13.20;54.20;;;;;;5102566;28;20426;-60
2022/12/31 00:36:13;;;;;;;6.70;6.40;;;13.20;54.20;;;;;;5106778;27;20964;-61
2022/12/31 00:38:40;;;;;;;5.80;5.60;;;13.20;54.20;;;;;;5100194;28;20515;-60
2022/12/31 00:41:07;;;;;;;6.60;6.40;;;13.20;54.20;;;;;;5123847;27;20411;-61
2022/12/31 00:43:33;;;;;;;7.60;7.07;;;13.20;54.20;;;;;;5098101;28;20431;-61
2022/12/31 00:45:59;;;;;;;5.90;5.70;;;13.30;54.30;;;;;;5104665;27;20419;-61
2022/12/31 00:48:26;;;;;;;9.07;8.37;;;13.30;54.00;;;;;;5102838;28;20652;-60
2022/12/31 00:50:52;;;;;;;6.60;6.40;;;13.30;53.80;;;;;;5093243;28;20423;-60
2022/12/31 00:53:18;;;;;;;9.23;8.23;;;13.40;53.60;;;;;;5101389;27;20418;-60
2022/12/31 00:55:44;;;;;;;9.13;8.60;;;13.40;53.50;;;;;;5102156;27;20423;-60
2022/12/31 00:58:09;;;;;;;6.70;6.50;;;13.40;53.40;;;;;;5101736;27;20182;-60
2022/12/31 01:00:36;;;;;;;7.10;6.90;;;13.40;53.10;;;;;;5102300;27;20243;-60
2022/12/31 01:03:03;;;;;;;8.40;7.80;;;13.50;53.10;;;;;;5100270;28;20588;-60
2022/12/31 01:05:30;;;;;;;7.50;7.10;;;13.50;52.60;;;;;;5100661;27;20521;-60
2022/12/31 01:07:55;;;;;;;7.30;7.10;;;13.60;52.20;;;;;;5099011;28;20486;-61
2022/12/31 01:13:06;;;;;;;10.43;7.03;;;13.70;51.70;;;;;;5117319;28;20242;-60
2022/12/31 01:15:34;;;;;;;6.10;5.90;;;13.80;51.30;;;;;;5102909;28;20416;-58
2022/12/31 01:18:00;;;;;;;7.07;6.77;;;13.80;51.00;;;;;;5099943;28;20784;-58
2022/12/31 01:20:26;;;;;;;7.30;7.00;;;13.80;50.60;;;;;;5102492;28;20420;-58
2022/12/31 01:22:52;;;;;;;7.10;6.90;;;13.90;50.60;;;;;;5105959;28;20951;-58
2022/12/31 01:25:17;;;;;;;8.47;8.00;;;13.80;50.70;;;;;;5095044;28;20416;-58
2022/12/31 01:27:43;;;;;;;7.20;7.00;;;13.90;50.70;;;;;;5103015;28;20656;-58
2022/12/31 01:30:09;;;;;;;8.53;8.07;;;13.90;50.40;;;;;;5099356;28;20216;-58
2022/12/31 01:32:35;;;;;;;7.60;7.30;;;13.90;50.10;;;;;;5101749;28;20181;-58
2022/12/31 01:35:00;;;;;;;6.87;6.57;;;13.90;50.10;;;;;;5099425;28;20820;-58
2022/12/31 01:37:27;;;;;;;9.47;8.93;;;14.00;50.10;;;;;;5094136;28;20212;-58
2022/12/31 01:39:52;;;;;;;7.97;7.70;;;14.00;49.80;;;;;;5099069;28;20220;-58
2022/12/31 01:42:18;;;;;;;7.00;6.80;;;14.00;49.40;;;;;;5101622;28;20832;-58
2022/12/31 01:44:53;;;;;;;7.93;7.60;;;14.00;49.30;;;;;;5099352;28;20631;-58
2022/12/31 01:47:38;;;;;;;11.33;10.60;;;14.00;49.40;;;;;;5088021;28;20676;-58
2022/12/31 01:50:15;;;;;;;7.70;7.30;;;14.00;49.40;;;;;;5100902;28;20407;-58
2022/12/31 01:52:44;;;;;;;7.83;7.43;;;14.00;49.20;;;;;;5100674;28;21239;-58
2022/12/31 01:55:13;;;;;;;7.10;6.90;;;14.00;48.90;;;;;;5100349;28;20408;-58
2022/12/31 01:57:38;;;;;;;7.43;7.23;;;14.00;48.90;;;;;;5100273;28;20418;-58
2022/12/31 02:00:06;;;;;;;9.70;9.00;;;14.00;48.80;;;;;;5099320;28;21021;-58
2022/12/31 02:02:32;;;;;;;10.23;9.20;;;14.10;48.70;;;;;;5103655;28;20503;-58
2022/12/31 02:05:01;;;;;;;8.27;7.70;;;14.10;48.40;;;;;;5098326;28;20519;-58
2022/12/31 02:07:27;;;;;;;7.83;7.60;;;14.00;48.20;;;;;;5102658;28;20573;-58
2022/12/31 02:09:53;;;;;;;8.70;8.40;;;14.10;47.90;;;;;;5097979;28;20403;-58
2022/12/31 02:12:19;;;;;;;8.57;8.23;;;14.10;47.50;;;;;;5102709;28;20415;-58
2022/12/31 02:14:49;;;;;;;8.00;7.80;;;14.10;47.20;;;;;;5104148;28;20410;-58
2022/12/31 02:17:20;;;;;;;10.07;9.47;;;14.10;46.90;;;;;;5095974;27;20424;-58
2022/12/31 02:20:24;;;;;;;8.33;8.03;;;14.10;46.60;;;;;;5106144;27;20482;-58
2022/12/31 02:23:05;;;;;;;10.27;9.80;;;14.20;46.50;;;;;;5088814;27;20478;-58
2022/12/31 02:25:37;;;;;;;9.70;9.20;;;14.20;46.20;;;;;;5092489;28;20420;-59
2022/12/31 02:28:24;;;;;;;7.80;7.60;;;14.20;45.70;;;;;;5108216;27;20462;-62
2022/12/31 02:30:59;;;;;;;8.30;8.10;;;14.20;45.80;;;;;;5097555;28;20433;-58
2022/12/31 02:33:31;;;;;;;8.67;8.37;;;14.20;45.70;;;;;;5096008;28;20859;-58
2022/12/31 02:36:04;;;;;;;9.93;9.53;;;14.20;45.80;;;;;;5101506;27;20427;-58
2022/12/31 02:38:36;;;;;;;8.33;8.10;;;14.20;45.70;;;;;;5105245;28;20407;-58
2022/12/31 02:41:02;;;;;;;9.30;8.90;;;14.20;45.30;;;;;;5108194;27;20783;-58
2022/12/31 02:43:28;;;;;;;8.60;8.30;;;14.20;45.30;;;;;;5100927;28;20594;-58
2022/12/31 02:46:20;;;;;;;9.07;8.67;;;14.20;45.30;;;;;;5106628;27;20185;-58
2022/12/31 02:48:54;;;;;;;8.40;8.10;;;14.20;45.30;;;;;;5101888;27;20201;-58
2022/12/31 02:51:50;;;;;;;9.20;8.90;;;14.20;45.30;;;;;;5096593;28;20456;-58
2022/12/31 02:54:28;;;;;;;8.90;8.60;;;14.10;45.30;;;;;;5107619;27;20420;-58
2022/12/31 02:56:53;;;;;;;10.13;9.70;;;14.20;44.60;;;;;;5097103;27;20408;-58
2022/12/31 03:02:18;;;;;;;8.70;8.50;;;14.30;44.40;;;;;;5127030;27;20200;-58
2022/12/31 03:04:50;;;;;;;8.57;8.27;;;14.30;43.70;;;;;;5099589;28;20900;-58
2022/12/31 03:07:26;;;;;;;10.10;9.53;;;14.30;43.40;;;;;;5107564;28;20494;-59
2022/12/31 03:09:52;;;;;;;8.47;8.27;;;14.40;43.40;;;;;;5096653;28;20415;-58
2022/12/31 03:15:06;;;;;;;8.50;8.20;;;14.40;43.30;;;;;;5121182;27;20786;-58
2022/12/31 03:17:34;;;;;;;10.00;9.70;;;14.40;43.10;;;;;;5100243;28;20807;-58
2022/12/31 03:22:44;;;;;;;9.93;9.50;;;14.50;42.80;;;;;;5121017;27;20604;-62
2022/12/31 03:28:00;;;;;;;9.07;8.73;;;14.60;43.00;;;;;;5124644;27;20269;-58
2022/12/31 03:30:27;;;;;;;9.70;9.37;;;14.60;42.30;;;;;;5099839;28;20412;-58
2022/12/31 03:32:55;;;;;;;8.17;7.97;;;14.60;42.60;;;;;;5099854;27;20902;-58
2022/12/31 03:35:21;;;;;;;8.77;8.47;;;14.60;42.80;;;;;;5096609;28;20431;-58
2022/12/31 03:37:48;;;;;;;9.30;9.00;;;14.70;42.70;;;;;;5103752;27;20433;-58
2022/12/31 03:40:15;;;;;;;9.00;8.50;;;14.70;42.80;;;;;;5100705;27;20496;-58
2022/12/31 03:42:41;;;;;;;10.10;9.67;;;14.80;42.70;;;;;;5103272;27;20787;-58
2022/12/31 03:45:08;;;;;;;8.40;8.20;;;14.80;42.70;;;;;;5100592;27;20825;-58
2022/12/31 03:47:34;;;;;;;9.10;8.80;;;14.80;42.80;;;;;;5105534;27;20469;-58
2022/12/31 03:49:59;;;;;;;8.40;8.20;;;14.90;42.70;;;;;;5101401;27;21080;-58
2022/12/31 03:52:25;;;;;;;8.40;8.00;;;14.90;42.90;;;;;;5102972;27;20241;-58
2022/12/31 03:54:51;;;;;;;9.90;9.50;;;14.90;43.10;;;;;;5099005;28;20381;-58
2022/12/31 03:57:16;;;;;;;8.60;8.30;;;14.90;43.30;;;;;;5106613;28;20181;-58
2022/12/31 03:59:42;;;;;;;9.90;9.30;;;14.80;43.30;;;;;;5126324;27;20181;-58
2022/12/31 04:02:08;;;;;;;8.43;8.13;;;14.90;43.20;;;;;;5110675;27;20657;-60
2022/12/31 04:04:34;;;;;;;9.13;8.67;;;14.90;42.90;;;;;;5110247;27;20514;-61
2022/12/31 04:06:59;;;;;;;8.03;7.83;;;14.90;43.20;;;;;;5110855;27;20312;-61
2022/12/31 04:09:25;;;;;;;8.73;8.43;;;15.00;43.10;;;;;;5110802;27;20169;-61
2022/12/31 04:11:51;;;;;;;8.60;8.40;;;15.00;43.10;;;;;;5110882;27;20185;-61
2022/12/31 04:14:16;;;;;;;8.57;8.27;;;15.00;42.70;;;;;;5112180;27;20273;-61
2022/12/31 04:16:43;;;;;;;8.53;8.23;;;15.00;43.00;;;;;;5111460;27;20264;-60
2022/12/31 04:19:09;;;;;;;9.60;9.00;;;15.00;42.80;;;;;;5110538;27;20173;-61
2022/12/31 04:21:35;;;;;;;8.00;7.80;;;15.10;42.90;;;;;;5110481;27;20772;-61
2022/12/31 04:24:01;;;;;;;9.03;8.67;;;15.10;42.80;;;;;;5110793;27;20915;-61
2022/12/31 04:26:27;;;;;;;9.03;8.70;;;15.10;42.50;;;;;;5110702;27;20461;-61
2022/12/31 04:28:53;;;;;;;9.10;8.80;;;15.20;42.30;;;;;;5111478;27;20407;-60
2022/12/31 04:31:19;;;;;;;9.10;8.77;;;15.20;42.60;;;;;;5110644;27;20595;-60
2022/12/31 04:33:44;;;;;;;10.03;9.50;;;15.20;42.20;;;;;;5110698;27;20182;-60
2022/12/31 04:36:10;;;;;;;8.90;8.60;;;15.30;42.30;;;;;;5110992;27;20177;-60
2022/12/31 04:38:35;;;;;;;8.50;8.20;;;15.20;42.40;;;;;;5110650;27;20169;-60
2022/12/31 04:41:17;;;;;;;8.90;8.60;;;15.20;42.30;;;;;;5108945;27;20191;-60
2022/12/31 04:43:49;;;;;;;9.30;8.97;;;15.20;42.30;;;;;;5111242;27;20197;-60
2022/12/31 04:46:16;;;;;;;8.90;8.60;;;15.30;42.20;;;;;;5111319;27;20435;-61
2022/12/31 04:48:42;;;;;;;9.00;8.70;;;15.30;42.20;;;;;;5110297;27;20423;-61
2022/12/31 04:51:08;;;;;;;9.03;8.73;;;15.30;42.30;;;;;;5111017;27;20411;-60
2022/12/31 04:53:34;;;;;;;8.40;8.10;;;15.30;42.20;;;;;;5110836;27;20411;-61
2022/12/31 04:55:59;;;;;;;8.70;8.33;;;15.30;42.20;;;;;;5130412;27;20496;-63
2022/12/31 04:58:25;;;;;;;8.67;8.37;;;15.40;42.10;;;;;;5111389;27;20177;-61
2022/12/31 05:00:53;;;;;;;8.83;8.53;;;15.40;42.10;;;;;;5111535;27;20177;-61
2022/12/31 05:03:20;;;;;;;9.87;9.47;;;15.40;41.90;;;;;;5111898;27;20238;-61
2022/12/31 05:05:46;;;;;;;8.80;8.60;;;15.50;42.00;;;;;;5111885;28;20419;-61
2022/12/31 05:08:13;;;;;;;9.67;9.10;;;15.50;41.70;;;;;;5111832;27;20528;-59
2022/12/31 05:10:44;;;;;;;8.97;8.67;;;15.50;41.80;;;;;;5111775;28;20411;-59
2022/12/31 05:13:10;;;;;;;8.27;8.07;;;15.50;41.80;;;;;;5112361;27;20424;-59
2022/12/31 05:15:36;;;;;;;8.40;8.20;;;15.40;41.80;;;;;;5111688;27;20417;-59
2022/12/31 05:18:02;;;;;;;9.10;8.80;;;15.40;41.90;;;;;;5112404;28;20522;-59
2022/12/31 05:20:28;;;;;;;9.30;9.00;;;15.40;41.90;;;;;;5112049;28;20454;-59
2022/12/31 05:22:54;;;;;;;8.90;8.60;;;15.40;42.20;;;;;;5112635;28;20460;-59
2022/12/31 05:25:20;;;;;;;9.23;8.93;;;15.30;42.50;;;;;;5131138;28;20618;-59
2022/12/31 05:27:46;;;;;;;9.00;8.60;;;15.30;42.60;;;;;;5112872;28;20561;-59
2022/12/31 05:30:12;;;;;;;12.50;11.30;;;15.30;42.50;;;;;;5112917;28;20196;-59
2022/12/31 05:32:38;;;;;;;10.93;10.43;;;15.30;42.60;;;;;;5112395;28;20169;-59
2022/12/31 05:35:04;;;;;;;9.63;9.33;;;15.30;43.00;;;;;;5113199;28;20887;-59
2022/12/31 05:37:30;;;;;;;10.07;9.67;;;15.30;43.00;;;;;;5113451;28;20415;-59
2022/12/31 05:39:57;;;;;;;9.13;8.93;;;15.20;43.00;;;;;;5112578;28;20407;-60
2022/12/31 05:42:22;;;;;;;9.10;8.70;;;15.30;43.10;;;;;;5113021;28;20415;-59
2022/12/31 05:44:49;;;;;;;8.40;8.20;;;15.30;42.80;;;;;;5113767;28;20445;-60
2022/12/31 05:47:14;;;;;;;8.60;8.30;;;15.30;42.90;;;;;;5131744;28;20205;-60
2022/12/31 05:49:40;;;;;;;8.60;8.30;;;15.20;43.00;;;;;;5131540;28;20415;-60
2022/12/31 05:52:06;;;;;;;9.03;8.67;;;15.20;43.00;;;;;;5115012;27;20268;-60
2022/12/31 05:54:32;;;;;;;9.00;8.70;;;15.20;43.10;;;;;;5116622;27;20543;-60
2022/12/31 05:56:58;;;;;;;8.43;8.23;;;15.10;43.40;;;;;;5117267;27;20416;-60
2022/12/31 05:59:24;;;;;;;8.73;8.43;;;15.10;42.70;;;;;;5117014;27;20418;-60
2022/12/31 06:01:50;;;;;;;11.60;8.50;;;15.20;42.90;;;;;;5116881;27;20814;-60
2022/12/31 06:04:16;;;;;;;8.50;8.20;;;15.10;43.10;;;;;;5117466;27;20177;-60
2022/12/31 06:06:41;;;;;;;8.23;8.03;;;15.10;43.20;;;;;;5117141;27;20457;-60
2022/12/31 06:09:07;;;;;;;8.43;7.83;;;15.10;43.50;;;;;;5116524;27;20411;-60
2022/12/31 06:11:32;;;;;;;8.30;7.90;;;15.10;43.70;;;;;;5116684;27;20170;-60
2022/12/31 06:13:58;;;;;;;9.53;9.03;;;15.10;43.60;;;;;;5117248;27;20217;-59
2022/12/31 06:16:24;;;;;;;10.00;9.60;;;15.10;43.90;;;;;;5117208;27;20637;-62
2022/12/31 06:18:50;;;;;;;8.00;7.80;;;15.00;44.00;;;;;;5117527;27;20177;-60
2022/12/31 06:21:17;;;;;;;8.90;8.60;;;15.00;44.20;;;;;;5134584;27;20617;-60
2022/12/31 06:23:42;;;;;;;9.30;9.00;;;15.00;44.20;;;;;;5096614;28;20472;-60
2022/12/31 06:26:08;;;;;;;8.77;8.33;;;15.00;44.50;;;;;;5097085;28;20412;-60
2022/12/31 06:28:34;;;;;;;8.47;8.27;;;15.00;44.30;;;;;;5096809;28;20202;-60
2022/12/31 06:31:04;;;;;;;7.83;7.63;;;15.00;44.40;;;;;;5095991;28;20207;-60
2022/12/31 06:33:30;;;;;;;8.20;7.90;;;15.00;44.50;;;;;;5096737;28;20447;-60
2022/12/31 06:35:57;;;;;;;7.90;7.70;;;15.00;44.60;;;;;;5096625;28;20420;-60
2022/12/31 06:38:24;;;;;;;8.10;7.90;;;14.90;44.80;;;;;;5095977;28;20443;-60
2022/12/31 06:40:50;;;;;;;8.73;8.43;;;14.90;44.80;;;;;;5096589;28;20412;-60
2022/12/31 06:43:16;;;;;;;7.80;7.60;;;14.90;45.10;;;;;;5096178;28;20430;-60
2022/12/31 06:45:42;;;;;;;8.90;8.60;;;14.90;45.00;;;;;;5095580;28;20229;-60
2022/12/31 06:48:08;;;;;;;8.63;8.43;;;14.90;44.70;;;;;;5096374;28;20206;-60
2022/12/31 06:50:33;;;;;;;8.93;8.67;;;14.80;45.10;;;;;;5095985;28;20412;-60
2022/12/31 06:52:59;;;;;;;8.73;8.43;;;14.80;45.20;;;;;;5095914;28;20205;-60
2022/12/31 06:55:25;;;;;;;9.07;8.77;;;14.80;45.40;;;;;;5096009;28;20181;-57
2022/12/31 06:57:51;;;;;;;8.53;8.33;;;14.80;45.10;;;;;;5096387;28;20178;-57
2022/12/31 07:00:17;;;;;;;8.20;8.00;;;14.80;45.00;;;;;;5096367;28;20430;-59
2022/12/31 07:02:49;;;;;;;7.67;7.47;;;14.80;44.80;;;;;;5095153;28;20419;-57
2022/12/31 07:05:30;;;;;;;8.00;7.73;;;14.80;44.90;;;;;;5095918;28;20420;-58
2022/12/31 07:08:10;;;;;;;7.57;7.37;;;14.80;44.60;;;;;;5095275;28;20466;-58
2022/12/31 07:10:36;;;;;;;8.27;7.97;;;14.90;44.80;;;;;;5095090;28;20974;-58
2022/12/31 07:13:10;;;;;;;7.87;7.67;;;14.80;44.90;;;;;;5095507;28;20510;-58
2022/12/31 07:15:48;;;;;;;8.47;8.00;;;14.80;44.90;;;;;;5094552;28;20314;-59
2022/12/31 07:18:44;;;;;;;8.67;8.30;;;14.80;45.00;;;;;;5095608;28;20426;-59
2022/12/31 07:21:13;;;;;;;7.70;7.47;;;14.80;44.90;;;;;;5095584;28;20435;-57
2022/12/31 07:23:39;;;;;;;8.67;8.37;;;14.80;44.90;;;;;;5095478;28;20740;-58
2022/12/31 07:26:23;;;;;;;7.90;7.70;;;14.80;44.90;;;;;;5095684;28;20468;-57
2022/12/31 07:29:19;;;;;;;8.07;7.77;;;14.80;44.60;;;;;;5096097;28;20420;-57
2022/12/31 07:31:47;;;;;;;7.80;7.60;;;14.80;44.50;;;;;;5094388;28;20489;-58
2022/12/31 07:34:28;;;;;;;8.47;8.27;;;14.80;44.70;;;;;;5094523;28;20438;-58
2022/12/31 07:37:37;;;;;;;8.37;8.17;;;14.80;44.40;;;;;;5093793;28;20779;-57
2022/12/31 07:40:18;;;;;;;8.80;8.50;;;14.90;44.00;;;;;;5056992;28;20449;-58
2022/12/31 07:43:05;;;;;;;8.27;8.07;;;14.90;43.90;;;;;;5094712;28;20408;-57
2022/12/31 07:45:39;;;;;;;8.93;8.70;;;15.00;43.60;;;;;;5094716;28;20526;-57
2022/12/31 07:48:26;;;;;;;8.83;8.53;;;15.00;43.30;;;;;;5094986;28;20486;-57
2022/12/31 07:50:54;;;;;;;8.90;8.60;;;15.00;43.30;;;;;;5094401;28;20469;-58
2022/12/31 07:53:21;;;;;;;8.90;8.60;;;15.10;42.40;;;;;;5094576;28;20404;-58
2022/12/31 07:55:53;;;;;;;8.50;8.30;;;15.10;42.30;;;;;;5094647;28;20503;-57
2022/12/31 07:58:48;;;;;;;8.60;8.30;;;15.20;42.00;;;;;;5094703;28;20415;-58
2022/12/31 08:01:17;;;;;;;8.97;8.67;;;15.10;42.00;;;;;;5112621;28;20934;-57
2022/12/31 08:03:52;;;;;;;9.30;9.00;;;15.20;41.80;;;;;;5094804;28;20755;-58
2022/12/31 08:06:35;;;;;;;8.87;8.67;;;15.20;41.90;;;;;;5094640;28;20411;-58
2022/12/31 08:09:24;;;;;;;8.33;8.13;;;15.20;41.30;;;;;;5112590;28;20404;-57
2022/12/31 08:11:58;;;;;;;8.37;8.10;;;15.30;41.20;;;;;;5094092;28;20514;-59
2022/12/31 08:14:25;;;;;;;7.90;7.70;;;15.30;40.50;;;;;;5112166;28;20422;-58
2022/12/31 08:16:51;;;;;;;8.07;7.87;;;15.40;40.50;;;;;;5094476;28;20936;-58
2022/12/31 08:19:27;;;;;;;7.90;7.70;;;15.40;40.70;;;;;;5094332;28;20404;-58
2022/12/31 08:22:08;;;;;;;7.77;7.57;;;15.50;39.60;;;;;;5093739;28;20422;-56
2022/12/31 08:24:52;;;;;;;8.03;7.73;;;15.50;39.90;;;;;;5094205;28;20931;-56
2022/12/31 08:27:57;;;;;;;7.97;7.77;;;15.50;39.70;;;;;;5094170;28;21002;-56
2022/12/31 08:30:35;;;;;;;8.27;7.60;;;15.60;39.30;;;;;;5093560;28;20418;-55
2022/12/31 08:33:18;;;;;;;7.57;7.37;;;15.60;38.90;;;;;;5093813;28;20406;-56
2022/12/31 08:35:56;;;;;;;7.30;7.10;;;15.60;38.80;;;;;;5093983;28;20412;-56
2022/12/31 08:38:28;;;;;;;7.53;7.30;;;15.60;38.50;;;;;;5093844;28;20469;-56
2022/12/31 08:41:29;;;;;;;7.30;7.10;;;15.60;38.50;;;;;;5093934;28;20617;-56
2022/12/31 08:44:22;;;;;;;7.43;7.23;;;15.60;39.20;;;;;;5093661;28;20490;-55
2022/12/31 08:47:13;;;;;;;7.97;7.50;;;15.60;38.90;;;;;;5093409;28;20483;-58
2022/12/31 08:49:38;;;;;;;7.90;7.60;;;15.60;38.80;;;;;;5093389;28;20907;-58
2022/12/31 08:52:23;;;;;;;7.57;7.30;;;15.60;38.80;;;;;;5090477;28;22057;-58
2022/12/31 08:54:49;;;;;;;7.30;7.10;;;15.60;38.60;;;;;;5100920;28;20720;-58
2022/12/31 08:57:35;;;;;;;8.80;8.20;;;15.70;38.30;;;;;;5095851;27;20815;-58
2022/12/31 09:00:04;;;;;;;7.83;7.63;;;15.70;38.50;;;;;;5069010;28;20414;-58
2022/12/31 09:02:54;;;;;;;7.87;7.67;;;15.80;37.80;;;;;;5104014;27;20435;-59
2022/12/31 09:05:44;;;;;;;7.97;7.77;;;15.80;37.90;;;;;;5093141;28;20400;-58
2022/12/31 09:08:28;;;;;;;7.93;7.63;;;15.80;37.10;;;;;;5101740;28;20474;-58
2022/12/31 09:11:31;;;;;;;7.77;7.57;;;15.90;37.10;;;;;;5103137;28;20425;-58
2022/12/31 09:14:30;;;;;;;7.63;7.23;;;15.90;37.10;;;;;;5095864;28;20440;-58
2022/12/31 09:16:58;;;;;;;8.07;7.77;;;15.90;37.40;;;;;;5063027;27;20517;-58
2022/12/31 09:19:24;;;;;;;8.77;8.37;;;15.90;37.10;;;;;;5104684;28;20415;-58
2022/12/31 09:21:50;;;;;;;8.27;7.90;;;16.00;36.80;;;;;;5103432;28;20495;-52
2022/12/31 09:24:16;;;;;;;8.03;7.73;;;16.00;36.70;;;;;;5105012;28;20201;-52
2022/12/31 09:26:53;;;;;;;9.23;8.97;;;16.00;36.80;;;;;;5106580;27;20454;-52
2022/12/31 09:29:46;;;;;;;8.90;8.60;;;16.10;36.30;;;;;;5119695;27;20632;-51
2022/12/31 09:32:20;;;;;;;8.07;7.77;;;16.20;35.70;;;;;;5111864;27;20468;-52
2022/12/31 09:35:10;;;;;;;8.47;8.23;;;16.20;35.30;;;;;;5101326;28;20407;-50
2022/12/31 09:37:44;;;;;;;7.27;7.07;;;16.30;35.40;;;;;;5095580;28;20411;-48
2022/12/31 09:40:45;;;;;;;7.70;7.50;;;16.30;34.60;;;;;;5112371;27;21009;-54
2022/12/31 09:43:52;;;;;;;7.70;7.50;;;16.40;34.20;;;;;;5106189;27;20988;-53
2022/12/31 09:46:51;;;;;;;7.60;7.40;;;16.50;34.20;;;;;;5063597;27;20419;-52
2022/12/31 09:49:25;;;;;;;7.90;7.70;;;16.60;33.60;;;;;;5105580;27;20419;-59
2022/12/31 09:52:12;;;;;;;7.40;7.20;;;16.70;32.90;;;;;;5108044;27;20430;-58
2022/12/31 09:54:40;;;;;;;7.23;7.03;;;16.70;32.70;;;;;;5100768;27;20398;-58
2022/12/31 09:57:12;;;;;;;7.30;7.10;;;16.80;32.50;;;;;;5106033;27;20451;-58
2022/12/31 09:59:47;;;;;;;7.03;6.83;;;16.80;32.80;;;;;;5108192;27;20756;-58
2022/12/31 10:02:48;;;;;;;7.17;6.97;;;16.90;32.10;;;;;;5104443;27;20493;-59
2022/12/31 10:05:41;;;;;;;7.40;7.20;;;16.90;31.80;;;;;;5106663;27;20426;-59
2022/12/31 10:08:39;;;;;;;7.83;7.53;;;17.00;32.00;;;;;;5105835;27;20454;-59
2022/12/31 10:11:15;;;;;;;7.97;7.67;;;17.00;31.30;;;;;;5097861;27;20895;-58
2022/12/31 10:13:45;;;;;;;7.53;7.33;;;17.10;31.30;;;;;;5104058;28;20866;-58
2022/12/31 10:16:38;;;;;;;7.80;7.60;;;17.10;31.30;;;;;;5105433;27;20408;-58
2022/12/31 10:19:28;;;;;;;6.73;6.53;;;17.20;30.80;;;;;;5097889;27;20409;-58
2022/12/31 10:22:24;;;;;;;7.20;7.00;;;17.20;30.60;;;;;;5096228;28;20459;-55
2022/12/31 10:25:20;;;;;;;7.27;7.07;;;17.20;30.10;;;;;;5088903;28;20423;-54
2022/12/31 10:27:57;;;;;;;7.30;7.00;;;17.20;30.10;;;;;;5092752;28;20495;-53
2022/12/31 10:30:23;;;;;;;6.70;6.50;;;17.20;30.30;;;;;;5084006;28;20440;-52
2022/12/31 10:33:06;;;;;;;7.60;7.30;;;17.30;30.40;;;;;;5095949;28;20425;-54
2022/12/31 10:35:59;;;;;;;7.40;7.20;;;17.30;30.40;;;;;;5094253;27;20411;-52
2022/12/31 10:38:58;;;;;;;11.90;10.80;;;17.30;30.00;;;;;;5094030;27;20410;-54
2022/12/31 10:41:23;;;;;;;7.63;7.40;;;17.30;30.00;;;;;;5094457;27;20441;-56
2022/12/31 10:44:21;;;;;;;7.53;7.33;;;17.40;30.00;;;;;;5098617;28;20812;-54
2022/12/31 10:47:05;;;;;;;7.90;7.70;;;17.40;30.10;;;;;;5032693;28;20681;-54
2022/12/31 10:49:49;;;;;;;7.23;7.03;;;17.40;29.70;;;;;;5097712;28;20468;-50
2022/12/31 10:52:50;;;;;;;7.70;7.40;;;17.50;29.60;;;;;;5099148;27;20496;-53
2022/12/31 10:55:43;;;;;;;7.70;7.40;;;17.40;29.60;;;;;;5105540;27;20444;-53
2022/12/31 10:58:38;;;;;;;7.17;6.97;;;17.50;29.00;;;;;;5103247;27;20783;-54
2022/12/31 11:01:17;;;;;;;8.00;7.77;;;17.60;29.10;;;;;;5098224;27;21073;-55
2022/12/31 11:04:30;;;;;;;8.03;7.63;;;17.60;29.30;;;;;;5105751;28;20768;-53
2022/12/31 11:07:14;;;;;;;7.60;7.10;;;17.60;28.80;;;;;;5067079;27;20443;-54
2022/12/31 11:10:07;;;;;;;7.57;7.30;;;17.60;28.30;;;;;;5092912;28;20777;-53
2022/12/31 11:12:48;;;;;;;6.60;6.40;;;17.70;28.50;;;;;;5100870;27;20772;-53
2022/12/31 11:15:19;;;;;;;6.37;6.17;;;17.60;28.30;;;;;;5105167;27;20527;-52
2022/12/31 11:17:51;;;;;;;6.60;6.40;;;17.70;28.40;;;;;;5103821;27;20411;-56
2022/12/31 11:20:32;;;;;;;6.83;6.43;;;17.70;28.40;;;;;;5103363;27;20467;-48
2022/12/31 11:23:33;;;;;;;7.40;7.10;;;17.80;27.90;;;;;;5104237;27;20437;-52
2022/12/31 11:26:11;;;;;;;6.43;6.23;;;17.80;28.20;;;;;;5095767;27;20408;-51
2022/12/31 11:28:40;;;;;;;7.20;6.90;;;17.80;27.50;;;;;;5094438;28;20977;-54
2022/12/31 11:31:23;;;;;;;7.27;6.73;;;17.80;27.30;;;;;;5104128;27;20800;-50
2022/12/31 11:34:09;;;;;;;6.90;6.70;;;17.90;27.50;;;;;;5105270;28;20444;-48
2022/12/31 11:36:35;;;;;;;7.80;7.50;;;17.90;27.30;;;;;;5088631;28;20432;-57
2022/12/31 11:39:10;;;;;;;7.80;7.60;;;17.90;27.20;;;;;;5103132;28;20419;-56
2022/12/31 11:41:53;;;;;;;6.93;6.73;;;17.90;27.00;;;;;;5085548;28;20174;-57
2022/12/31 11:44:24;;;;;;;6.83;6.63;;;18.00;26.80;;;;;;5102365;27;20458;-56
2022/12/31 11:47:12;;;;;;;6.77;6.57;;;18.00;26.30;;;;;;5092282;28;20457;-53
2022/12/31 11:49:49;;;;;;;7.57;7.07;;;18.10;26.20;;;;;;5087558;28;20424;-50
2022/12/31 11:52:46;;;;;;;7.97;7.60;;;18.20;25.90;;;;;;5083415;27;20460;-51
2022/12/31 11:55:12;;;;;;;8.20;7.90;;;18.20;26.80;;;;;;5077637;27;20428;-54
2022/12/31 11:57:38;;;;;;;9.03;8.50;;;18.20;25.80;;;;;;5091618;27;20424;-53
2022/12/31 12:00:25;;;;;;;7.13;6.70;;;18.20;26.30;;;;;;5095344;27;20178;-53
2022/12/31 12:02:59;;;;;;;5.80;5.70;;;18.20;25.90;;;;;;5098794;28;20992;-53
2022/12/31 12:05:26;;;;;;;6.27;6.07;;;18.20;25.70;;;;;;5090982;28;20453;-50
2022/12/31 12:07:52;;;;;;;6.73;6.53;;;18.30;25.50;;;;;;5098111;28;20479;-52
2022/12/31 12:10:24;;;;;;;6.70;6.50;;;18.30;25.30;;;;;;5097985;28;20416;-52
2022/12/31 12:12:51;;;;;;;6.67;6.47;;;18.40;25.30;;;;;;5092815;28;20419;-51
2022/12/31 12:15:31;;;;;;;6.60;6.40;;;18.40;25.20;;;;;;5098233;27;20407;-51
2022/12/31 12:18:03;;;;;;;6.70;6.50;;;18.40;25.50;;;;;;5096699;27;20435;-50
2022/12/31 12:20:36;;;;;;;6.20;6.00;;;18.40;25.60;;;;;;5122529;27;20423;-53
2022/12/31 12:23:14;;;;;;;6.10;6.00;;;18.40;25.60;;;;;;5100531;28;20433;-50
2022/12/31 12:25:42;;;;;;;6.93;6.73;;;18.40;25.60;;;;;;5088150;27;20446;-54
2022/12/31 12:28:26;;;;;;;6.40;6.20;;;18.40;25.60;;;;;;5091186;27;20461;-54
2022/12/31 12:30:59;;;;;;;7.13;6.83;;;18.40;25.70;;;;;;5087504;27;20414;-54
2022/12/31 12:33:28;;;;;;;7.13;6.53;;;18.30;26.40;;;;;;5092562;27;20419;-51
2022/12/31 12:36:08;;;;;;;6.67;6.47;;;18.20;26.50;;;;;;5088206;28;20423;-52
2022/12/31 12:38:34;;;;;;;7.80;7.50;;;18.20;26.90;;;;;;5102615;27;20407;-54
2022/12/31 12:41:05;;;;;;;7.00;6.80;;;18.10;26.90;;;;;;5107698;27;20409;-57
2022/12/31 12:43:36;;;;;;;6.60;6.40;;;18.10;26.80;;;;;;5109767;27;20495;-56
2022/12/31 12:46:06;;;;;;;6.60;6.40;;;18.00;26.90;;;;;;5095453;27;20417;-57
2022/12/31 12:48:44;;;;;;;6.80;6.50;;;18.00;26.20;;;;;;5091108;28;20947;-57
2022/12/31 12:51:25;;;;;;;6.13;5.93;;;18.20;25.30;;;;;;5094278;28;20495;-57
2022/12/31 12:54:03;;;;;;;6.80;6.60;;;18.30;25.30;;;;;;5110259;27;20414;-56
2022/12/31 12:56:35;;;;;;;6.70;6.50;;;18.40;25.30;;;;;;5093718;28;20412;-57
2022/12/31 12:59:09;;;;;;;7.53;6.50;;;18.40;25.30;;;;;;5092198;27;20404;-57
2022/12/31 13:01:43;;;;;;;6.43;6.23;;;18.30;25.30;;;;;;5090510;28;20499;-57
2022/12/31 13:04:44;;;;;;;6.87;6.67;;;18.30;25.30;;;;;;5096026;27;20400;-57
2022/12/31 13:07:22;;;;;;;7.17;6.97;;;18.40;25.10;;;;;;5069095;27;20954;-57
2022/12/31 13:10:12;;;;;;;7.10;6.80;;;18.50;24.50;;;;;;5106047;28;20430;-56
2022/12/31 13:12:59;;;;;;;7.77;7.47;;;18.50;24.40;;;;;;5091287;27;20773;-57
2022/12/31 13:16:09;;;;;;;7.00;6.70;;;18.50;23.80;;;;;;5091584;27;20434;-56
2022/12/31 13:19:02;;;;;;;6.90;6.70;;;18.50;23.80;;;;;;5020530;28;20498;-57
2022/12/31 13:21:54;;;;;;;6.47;6.27;;;18.50;23.90;;;;;;5036680;28;20406;-56
2022/12/31 13:24:29;;;;;;;7.10;6.90;;;18.40;23.60;;;;;;5075457;28;20442;-57
2022/12/31 13:27:18;;;;;;;6.83;6.63;;;18.40;23.70;;;;;;5094925;28;20464;-59
2022/12/31 13:29:46;;;;;;;7.70;7.10;;;18.40;23.80;;;;;;5101932;28;20443;-58
2022/12/31 13:32:17;;;;;;;6.80;6.60;;;18.40;23.70;;;;;;5101388;28;20419;-56
2022/12/31 13:34:47;;;;;;;5.93;5.77;;;18.40;24.00;;;;;;5102457;28;20417;-56